Terminal Aerodrome Forecast
Issued by NWS Rapid City, SD

Home | Current Version | Previous Version | Text Only | Print | Product List | Glossary On
Versions: 1 2 3 4 5 6 7 8 9 10 11 12 13 14
000
FTUS43 KUNR 042320
TAFRAP
TAF
KRAP 042320Z 0500/0524 15012KT P6SM SCT025 BKN060
     FM050400 27005KT P6SM BKN070
     FM051800 14008KT P6SM SCT060 BKN250=

USA.gov is the U.S. government's official web portal to all federal, state and local government web resources and services.